This is the latest recevied weather packets stored in our database for station/object KD5KNZ-13. If no packets are shown the sender has not sent any weather packets the latest 10 day(s).
| Time | Temp. | Humidity | Pressure | Rain* | Wind** | Luminosity | Snow |
|---|---|---|---|---|---|---|---|
| 1778057171 | 22.22° C | 92% | 1011.2 hPa | 0 mm | - | - | - |
| 1778053544 | 22.78° C | 91% | 1011.2 hPa | 0 mm | - | - | - |
| 1778049053 | 22.22° C | 92% | 1011.5 hPa | 0 mm | - | - | - |
| 1778048145 | 22.22° C | 92% | 1011.5 hPa | 0 mm | - | - | - |
| 1778044546 | 22.22° C | 92% | 1011.8 hPa | 0 mm | - | - | - |
| 1778043644 | 22.22° C | 92% | 1011.8 hPa | 0 mm | - | - | - |
| 1778033767 | 22.78° C | 87% | 1011.6 hPa | 0 mm | - | - | - |
| 1778028337 | 23.89° C | 82% | 1010.8 hPa | 0 mm | - | - | - |
| 1778022949 | 25° C | 79% | 1011 hPa | 0 mm | - | - | - |
| 1778019337 | 26.11° C | 75% | 1010.9 hPa | 0 mm | - | - | - |
| 1778017554 | 26.11° C | 74% | 1011 hPa | 0 mm | - | - | - |
| 1778008539 | 27.22° C | 66% | 1011.6 hPa | 0 mm | - | - | - |
| 1777999542 | 25.56° C | 70% | 1013.2 hPa | 0 mm | - | - | - |
| 1777983366 | 13.33° C | 95% | 1012.3 hPa | 0 mm | - | - | - |
| 1777978846 | 12.78° C | 94% | 1012 hPa | 0 mm | - | - | - |
| 1777977050 | 12.78° C | 94% | 1012.1 hPa | 0 mm | - | - | - |
| 1777972542 | 12.78° C | 94% | 1012.3 hPa | 0 mm | - | - | - |
| 1777971654 | 12.78° C | 94% | 1012.3 hPa | 0 mm | - | - | - |
| 1777970748 | 12.78° C | 94% | 1012.2 hPa | 0 mm | - | - | - |
| 1777960840 | 13.33° C | 92% | 1013.3 hPa | 0 mm | - | - | - |
| 1777952737 | 15° C | 87% | 1013.6 hPa | 0 mm | - | - | - |
| 1777947351 | 16.11° C | 81% | 1013.2 hPa | 0 mm | - | - | - |
| 1777934744 | 23.33° C | 50% | 1014.2 hPa | 0 mm | - | - | - |
| 1777933844 | 23.33° C | 50% | 1014 hPa | 0 mm | - | - | - |
| 1777929344 | 25° C | 45% | 1014.6 hPa | 0 mm | - | - | - |
* Rain latest hour (hover to see other rain measurements)
** Current wind speed in m/s (hover to see current wind gust speed)